sensor_id;sensor_type;location;lat;lon;timestamp;temperature;humidity
46608;DHT22;32330;51.936;7.184;2022-12-29T00:01:26;10.30;99.90
46608;DHT22;32330;51.936;7.184;2022-12-29T00:03:53;10.30;99.90
46608;DHT22;32330;51.936;7.184;2022-12-29T00:06:21;10.30;99.90
46608;DHT22;32330;51.936;7.184;2022-12-29T00:08:48;10.30;99.90
46608;DHT22;32330;51.936;7.184;2022-12-29T00:11:17;10.30;99.90
46608;DHT22;32330;51.936;7.184;2022-12-29T00:13:44;10.40;99.90
46608;DHT22;32330;51.936;7.184;2022-12-29T00:16:30;10.30;99.90
46608;DHT22;32330;51.936;7.184;2022-12-29T00:18:57;10.40;99.90
46608;DHT22;32330;51.936;7.184;2022-12-29T00:21:26;10.40;99.90
46608;DHT22;32330;51.936;7.184;2022-12-29T00:24:14;10.40;99.90
46608;DHT22;32330;51.936;7.184;2022-12-29T00:27:09;10.40;99.90
46608;DHT22;32330;51.936;7.184;2022-12-29T00:29:54;10.40;99.90
46608;DHT22;32330;51.936;7.184;2022-12-29T00:32:38;10.50;99.90
46608;DHT22;32330;51.936;7.184;2022-12-29T00:35:26;10.50;99.90
46608;DHT22;32330;51.936;7.184;2022-12-29T00:37:58;10.50;99.90
46608;DHT22;32330;51.936;7.184;2022-12-29T00:40:44;10.50;99.90
46608;DHT22;32330;51.936;7.184;2022-12-29T00:43:29;10.50;99.90
46608;DHT22;32330;51.936;7.184;2022-12-29T00:46:13;10.50;99.90
46608;DHT22;32330;51.936;7.184;2022-12-29T00:48:40;10.50;99.90
46608;DHT22;32330;51.936;7.184;2022-12-29T00:51:24;10.50;99.90
46608;DHT22;32330;51.936;7.184;2022-12-29T00:53:53;10.50;99.90
46608;DHT22;32330;51.936;7.184;2022-12-29T00:56:20;10.50;99.90
46608;DHT22;32330;51.936;7.184;2022-12-29T00:58:47;10.50;99.90
46608;DHT22;32330;51.936;7.184;2022-12-29T01:01:14;10.40;99.90
46608;DHT22;32330;51.936;7.184;2022-12-29T01:03:41;10.40;99.90
46608;DHT22;32330;51.936;7.184;2022-12-29T01:06:09;10.40;99.90
46608;DHT22;32330;51.936;7.184;2022-12-29T01:08:37;10.30;99.90
46608;DHT22;32330;51.936;7.184;2022-12-29T01:11:06;10.30;99.90
46608;DHT22;32330;51.936;7.184;2022-12-29T01:13:33;10.30;99.90
46608;DHT22;32330;51.936;7.184;2022-12-29T01:16:01;10.30;99.90
46608;DHT22;32330;51.936;7.184;2022-12-29T01:18:28;10.30;99.90
46608;DHT22;32330;51.936;7.184;2022-12-29T01:20:59;10.30;99.90
46608;DHT22;32330;51.936;7.184;2022-12-29T01:23:26;10.30;99.90
46608;DHT22;32330;51.936;7.184;2022-12-29T01:25:53;10.30;99.90
46608;DHT22;32330;51.936;7.184;2022-12-29T01:28:22;10.30;99.90
46608;DHT22;32330;51.936;7.184;2022-12-29T01:30:49;10.30;99.90
46608;DHT22;32330;51.936;7.184;2022-12-29T01:33:15;10.30;99.90
46608;DHT22;32330;51.936;7.184;2022-12-29T01:35:42;10.30;99.90
46608;DHT22;32330;51.936;7.184;2022-12-29T01:38:09;10.30;99.90
46608;DHT22;32330;51.936;7.184;2022-12-29T01:40:43;10.30;99.90
46608;DHT22;32330;51.936;7.184;2022-12-29T01:43:11;10.30;99.90
46608;DHT22;32330;51.936;7.184;2022-12-29T01:45:42;10.30;99.90
46608;DHT22;32330;51.936;7.184;2022-12-29T01:48:11;10.30;99.90
46608;DHT22;32330;51.936;7.184;2022-12-29T01:50:43;10.30;99.90
46608;DHT22;32330;51.936;7.184;2022-12-29T01:53:15;10.30;99.90
46608;DHT22;32330;51.936;7.184;2022-12-29T01:55:48;10.30;99.90
46608;DHT22;32330;51.936;7.184;2022-12-29T01:58:15;10.30;99.90
46608;DHT22;32330;51.936;7.184;2022-12-29T02:00:45;10.30;99.90
46608;DHT22;32330;51.936;7.184;2022-12-29T02:03:14;10.40;99.90
46608;DHT22;32330;51.936;7.184;2022-12-29T02:05:47;10.40;99.90
46608;DHT22;32330;51.936;7.184;2022-12-29T02:08:16;10.40;99.90
46608;DHT22;32330;51.936;7.184;2022-12-29T02:10:44;10.50;99.90
46608;DHT22;32330;51.936;7.184;2022-12-29T02:13:14;10.50;99.90
46608;DHT22;32330;51.936;7.184;2022-12-29T02:15:51;10.40;99.90
46608;DHT22;32330;51.936;7.184;2022-12-29T02:18:28;10.40;99.90
46608;DHT22;32330;51.936;7.184;2022-12-29T02:24:27;10.50;99.90
46608;DHT22;32330;51.936;7.184;2022-12-29T02:30:06;10.50;99.90
46608;DHT22;32330;51.936;7.184;2022-12-29T02:32:42;10.60;99.90
46608;DHT22;32330;51.936;7.184;2022-12-29T02:35:20;10.50;99.90
46608;DHT22;32330;51.936;7.184;2022-12-29T02:37:58;10.60;99.90
46608;DHT22;32330;51.936;7.184;2022-12-29T02:40:32;10.60;99.90
46608;DHT22;32330;51.936;7.184;2022-12-29T02:43:08;10.60;99.90
46608;DHT22;32330;51.936;7.184;2022-12-29T02:45:45;10.70;99.90
46608;DHT22;32330;51.936;7.184;2022-12-29T02:48:20;10.70;99.90
46608;DHT22;32330;51.936;7.184;2022-12-29T02:50:55;10.70;99.90
46608;DHT22;32330;51.936;7.184;2022-12-29T02:53:25;10.80;99.90
46608;DHT22;32330;51.936;7.184;2022-12-29T02:56:07;10.80;99.90
46608;DHT22;32330;51.936;7.184;2022-12-29T02:58:34;10.80;99.90
46608;DHT22;32330;51.936;7.184;2022-12-29T03:01:18;10.80;99.90
46608;DHT22;32330;51.936;7.184;2022-12-29T03:03:56;10.90;99.90
46608;DHT22;32330;51.936;7.184;2022-12-29T03:06:33;10.90;99.90
46608;DHT22;32330;51.936;7.184;2022-12-29T03:09:11;11.00;99.90
46608;DHT22;32330;51.936;7.184;2022-12-29T03:11:46;11.00;99.90
46608;DHT22;32330;51.936;7.184;2022-12-29T03:14:48;11.00;99.90
46608;DHT22;32330;51.936;7.184;2022-12-29T03:17:43;11.00;99.90
46608;DHT22;32330;51.936;7.184;2022-12-29T03:20:19;11.00;99.90
46608;DHT22;32330;51.936;7.184;2022-12-29T03:22:53;11.00;99.90
46608;DHT22;32330;51.936;7.184;2022-12-29T03:25:25;11.10;99.90
46608;DHT22;32330;51.936;7.184;2022-12-29T03:27:56;11.10;99.90
46608;DHT22;32330;51.936;7.184;2022-12-29T03:30:27;11.10;99.90
46608;DHT22;32330;51.936;7.184;2022-12-29T03:32:59;11.10;99.90
46608;DHT22;32330;51.936;7.184;2022-12-29T03:35:32;11.10;99.90
46608;DHT22;32330;51.936;7.184;2022-12-29T03:38:08;11.10;99.90
46608;DHT22;32330;51.936;7.184;2022-12-29T03:40:39;11.10;99.90
46608;DHT22;32330;51.936;7.184;2022-12-29T03:43:07;11.10;99.90
46608;DHT22;32330;51.936;7.184;2022-12-29T03:45:35;11.10;99.90
46608;DHT22;32330;51.936;7.184;2022-12-29T03:48:03;11.10;99.90
46608;DHT22;32330;51.936;7.184;2022-12-29T03:50:32;11.10;99.90
46608;DHT22;32330;51.936;7.184;2022-12-29T03:52:59;11.10;99.90
46608;DHT22;32330;51.936;7.184;2022-12-29T03:55:27;11.10;99.90
46608;DHT22;32330;51.936;7.184;2022-12-29T03:57:54;11.10;99.90
46608;DHT22;32330;51.936;7.184;2022-12-29T04:00:31;11.10;99.90
46608;DHT22;32330;51.936;7.184;2022-12-29T04:02:58;11.10;99.90
46608;DHT22;32330;51.936;7.184;2022-12-29T04:05:25;11.10;99.90
46608;DHT22;32330;51.936;7.184;2022-12-29T04:07:55;11.10;99.90
46608;DHT22;32330;51.936;7.184;2022-12-29T04:10:23;11.10;99.90
46608;DHT22;32330;51.936;7.184;2022-12-29T04:12:53;11.10;99.90
46608;DHT22;32330;51.936;7.184;2022-12-29T04:15:21;11.10;99.90
46608;DHT22;32330;51.936;7.184;2022-12-29T04:17:49;11.00;99.90
46608;DHT22;32330;51.936;7.184;2022-12-29T04:20:16;11.00;99.90
46608;DHT22;32330;51.936;7.184;2022-12-29T04:23:06;11.10;99.90
46608;DHT22;32330;51.936;7.184;2022-12-29T04:25:35;11.00;99.90
46608;DHT22;32330;51.936;7.184;2022-12-29T04:28:02;11.00;99.90
46608;DHT22;32330;51.936;7.184;2022-12-29T04:30:42;10.90;99.90
46608;DHT22;32330;51.936;7.184;2022-12-29T04:33:17;10.80;99.90
46608;DHT22;32330;51.936;7.184;2022-12-29T04:35:44;10.80;99.90
46608;DHT22;32330;51.936;7.184;2022-12-29T04:38:14;10.70;99.90
46608;DHT22;32330;51.936;7.184;2022-12-29T04:40:42;10.60;99.90
46608;DHT22;32330;51.936;7.184;2022-12-29T04:43:10;10.40;99.90
46608;DHT22;32330;51.936;7.184;2022-12-29T04:46:00;10.40;99.90
46608;DHT22;32330;51.936;7.184;2022-12-29T04:48:32;10.40;99.90
46608;DHT22;32330;51.936;7.184;2022-12-29T04:51:20;10.30;99.90
46608;DHT22;32330;51.936;7.184;2022-12-29T04:53:48;10.20;99.90
46608;DHT22;32330;51.936;7.184;2022-12-29T04:56:15;10.20;99.90
46608;DHT22;32330;51.936;7.184;2022-12-29T04:58:43;10.20;99.90
46608;DHT22;32330;51.936;7.184;2022-12-29T05:01:10;10.10;99.90
46608;DHT22;32330;51.936;7.184;2022-12-29T05:03:37;10.10;99.90
46608;DHT22;32330;51.936;7.184;2022-12-29T05:06:05;10.00;99.90
46608;DHT22;32330;51.936;7.184;2022-12-29T05:08:32;10.00;99.90
46608;DHT22;32330;51.936;7.184;2022-12-29T05:11:02;10.00;99.90
46608;DHT22;32330;51.936;7.184;2022-12-29T05:13:29;10.00;99.90
46608;DHT22;32330;51.936;7.184;2022-12-29T05:15:56;9.90;99.90
46608;DHT22;32330;51.936;7.184;2022-12-29T05:18:24;9.90;99.90
46608;DHT22;32330;51.936;7.184;2022-12-29T05:20:51;9.90;99.90
46608;DHT22;32330;51.936;7.184;2022-12-29T05:23:20;9.90;99.90
46608;DHT22;32330;51.936;7.184;2022-12-29T05:25:54;9.90;99.90
46608;DHT22;32330;51.936;7.184;2022-12-29T05:28:29;9.90;99.90
46608;DHT22;32330;51.936;7.184;2022-12-29T05:31:02;9.90;99.90
46608;DHT22;32330;51.936;7.184;2022-12-29T05:33:29;9.90;99.90
46608;DHT22;32330;51.936;7.184;2022-12-29T05:35:57;9.90;99.90
46608;DHT22;32330;51.936;7.184;2022-12-29T05:38:29;9.80;99.90
46608;DHT22;32330;51.936;7.184;2022-12-29T05:40:56;9.90;99.90
46608;DHT22;32330;51.936;7.184;2022-12-29T05:43:45;9.80;99.90
46608;DHT22;32330;51.936;7.184;2022-12-29T05:46:34;9.80;99.90
46608;DHT22;32330;51.936;7.184;2022-12-29T05:49:10;9.90;99.90
46608;DHT22;32330;51.936;7.184;2022-12-29T05:51:56;9.80;99.90
46608;DHT22;32330;51.936;7.184;2022-12-29T05:54:23;9.80;99.90
46608;DHT22;32330;51.936;7.184;2022-12-29T05:56:50;9.80;99.90
46608;DHT22;32330;51.936;7.184;2022-12-29T05:59:19;9.80;99.90
46608;DHT22;32330;51.936;7.184;2022-12-29T06:01:47;9.70;99.90
46608;DHT22;32330;51.936;7.184;2022-12-29T06:04:15;9.70;99.90
46608;DHT22;32330;51.936;7.184;2022-12-29T06:06:42;9.70;99.90
46608;DHT22;32330;51.936;7.184;2022-12-29T06:09:17;9.60;99.90
46608;DHT22;32330;51.936;7.184;2022-12-29T06:11:44;9.60;99.90
46608;DHT22;32330;51.936;7.184;2022-12-29T06:14:11;9.60;99.90
46608;DHT22;32330;51.936;7.184;2022-12-29T06:16:40;9.60;99.90
46608;DHT22;32330;51.936;7.184;2022-12-29T06:19:10;9.60;99.90
46608;DHT22;32330;51.936;7.184;2022-12-29T06:21:37;9.70;99.90
46608;DHT22;32330;51.936;7.184;2022-12-29T06:24:04;9.60;99.90
46608;DHT22;32330;51.936;7.184;2022-12-29T06:26:33;9.70;99.90
46608;DHT22;32330;51.936;7.184;2022-12-29T06:29:00;9.70;99.90
46608;DHT22;32330;51.936;7.184;2022-12-29T06:31:28;9.70;99.90
46608;DHT22;32330;51.936;7.184;2022-12-29T06:33:57;9.70;99.90
46608;DHT22;32330;51.936;7.184;2022-12-29T06:36:26;9.70;99.90
46608;DHT22;32330;51.936;7.184;2022-12-29T06:38:53;9.70;99.90
46608;DHT22;32330;51.936;7.184;2022-12-29T06:41:21;9.70;99.90
46608;DHT22;32330;51.936;7.184;2022-12-29T06:44:18;9.60;99.90
46608;DHT22;32330;51.936;7.184;2022-12-29T06:47:00;9.60;99.90
46608;DHT22;32330;51.936;7.184;2022-12-29T06:49:28;9.60;99.90
46608;DHT22;32330;51.936;7.184;2022-12-29T06:51:55;9.60;99.90
46608;DHT22;32330;51.936;7.184;2022-12-29T06:54:23;9.60;99.90
46608;DHT22;32330;51.936;7.184;2022-12-29T06:56:50;9.60;99.90
46608;DHT22;32330;51.936;7.184;2022-12-29T06:59:17;9.60;99.90
46608;DHT22;32330;51.936;7.184;2022-12-29T07:01:44;9.70;99.90
46608;DHT22;32330;51.936;7.184;2022-12-29T07:04:11;9.50;99.90
46608;DHT22;32330;51.936;7.184;2022-12-29T07:06:39;9.60;99.90
46608;DHT22;32330;51.936;7.184;2022-12-29T07:09:07;9.50;99.90
46608;DHT22;32330;51.936;7.184;2022-12-29T07:11:34;9.60;99.90
46608;DHT22;32330;51.936;7.184;2022-12-29T07:14:01;9.60;99.90
46608;DHT22;32330;51.936;7.184;2022-12-29T07:16:29;9.60;99.90
46608;DHT22;32330;51.936;7.184;2022-12-29T07:18:56;9.60;99.90
46608;DHT22;32330;51.936;7.184;2022-12-29T07:21:24;9.50;99.90
46608;DHT22;32330;51.936;7.184;2022-12-29T07:23:53;9.60;99.90
46608;DHT22;32330;51.936;7.184;2022-12-29T07:26:20;9.60;99.90
46608;DHT22;32330;51.936;7.184;2022-12-29T07:28:47;9.60;99.90
46608;DHT22;32330;51.936;7.184;2022-12-29T07:31:16;9.40;99.90
46608;DHT22;32330;51.936;7.184;2022-12-29T07:33:44;9.50;99.90
46608;DHT22;32330;51.936;7.184;2022-12-29T07:36:11;9.50;99.90
46608;DHT22;32330;51.936;7.184;2022-12-29T07:38:38;9.50;99.90
46608;DHT22;32330;51.936;7.184;2022-12-29T07:41:06;9.40;99.90
46608;DHT22;32330;51.936;7.184;2022-12-29T07:43:34;9.50;99.90
46608;DHT22;32330;51.936;7.184;2022-12-29T07:46:21;9.40;99.90
46608;DHT22;32330;51.936;7.184;2022-12-29T07:48:48;9.50;99.90
46608;DHT22;32330;51.936;7.184;2022-12-29T07:51:15;9.50;99.90
46608;DHT22;32330;51.936;7.184;2022-12-29T07:53:42;9.50;99.90
46608;DHT22;32330;51.936;7.184;2022-12-29T07:56:10;9.50;99.90
46608;DHT22;32330;51.936;7.184;2022-12-29T07:58:37;9.40;99.90
46608;DHT22;32330;51.936;7.184;2022-12-29T08:01:04;9.50;99.90
46608;DHT22;32330;51.936;7.184;2022-12-29T08:03:31;9.50;99.90
46608;DHT22;32330;51.936;7.184;2022-12-29T08:05:58;9.50;99.90
46608;DHT22;32330;51.936;7.184;2022-12-29T08:08:25;9.50;99.90
46608;DHT22;32330;51.936;7.184;2022-12-29T08:10:52;9.50;99.90
46608;DHT22;32330;51.936;7.184;2022-12-29T08:13:20;9.50;99.90
46608;DHT22;32330;51.936;7.184;2022-12-29T08:15:47;9.60;99.90
46608;DHT22;32330;51.936;7.184;2022-12-29T08:18:14;9.60;99.90
46608;DHT22;32330;51.936;7.184;2022-12-29T08:20:41;9.60;99.90
46608;DHT22;32330;51.936;7.184;2022-12-29T08:23:08;9.70;99.90
46608;DHT22;32330;51.936;7.184;2022-12-29T08:25:35;9.70;99.90
46608;DHT22;32330;51.936;7.184;2022-12-29T08:28:02;9.70;99.90
46608;DHT22;32330;51.936;7.184;2022-12-29T08:30:30;9.80;99.90
46608;DHT22;32330;51.936;7.184;2022-12-29T08:32:57;9.80;99.90
46608;DHT22;32330;51.936;7.184;2022-12-29T08:35:24;9.90;99.90
46608;DHT22;32330;51.936;7.184;2022-12-29T08:37:51;10.00;99.90
46608;DHT22;32330;51.936;7.184;2022-12-29T08:40:18;10.00;99.90
46608;DHT22;32330;51.936;7.184;2022-12-29T08:42:45;10.20;99.90
46608;DHT22;32330;51.936;7.184;2022-12-29T08:45:12;10.20;99.90
46608;DHT22;32330;51.936;7.184;2022-12-29T08:47:40;10.20;99.90
46608;DHT22;32330;51.936;7.184;2022-12-29T08:50:07;10.20;99.90
46608;DHT22;32330;51.936;7.184;2022-12-29T08:52:34;10.30;94.00
46608;DHT22;32330;51.936;7.184;2022-12-29T08:55:01;10.30;92.70
46608;DHT22;32330;51.936;7.184;2022-12-29T08:57:29;10.20;93.00
46608;DHT22;32330;51.936;7.184;2022-12-29T09:00:05;10.20;94.30
46608;DHT22;32330;51.936;7.184;2022-12-29T09:02:32;10.20;91.20
46608;DHT22;32330;51.936;7.184;2022-12-29T09:05:00;10.30;83.40
46608;DHT22;32330;51.936;7.184;2022-12-29T09:07:29;10.30;75.00
46608;DHT22;32330;51.936;7.184;2022-12-29T09:09:55;10.40;78.90
46608;DHT22;32330;51.936;7.184;2022-12-29T09:12:22;10.40;85.80
46608;DHT22;32330;51.936;7.184;2022-12-29T09:14:49;10.60;73.20
46608;DHT22;32330;51.936;7.184;2022-12-29T09:17:16;10.40;73.90
46608;DHT22;32330;51.936;7.184;2022-12-29T09:20:02;10.40;76.90
46608;DHT22;32330;51.936;7.184;2022-12-29T09:22:31;10.40;71.10
46608;DHT22;32330;51.936;7.184;2022-12-29T09:25:29;10.40;74.60
46608;DHT22;32330;51.936;7.184;2022-12-29T09:27:56;10.40;71.30
46608;DHT22;32330;51.936;7.184;2022-12-29T09:30:24;10.30;76.80
46608;DHT22;32330;51.936;7.184;2022-12-29T09:32:50;10.40;65.90
46608;DHT22;32330;51.936;7.184;2022-12-29T09:35:19;10.40;61.40
46608;DHT22;32330;51.936;7.184;2022-12-29T09:37:46;10.40;50.70
46608;DHT22;32330;51.936;7.184;2022-12-29T09:40:25;10.50;43.70
46608;DHT22;32330;51.936;7.184;2022-12-29T09:43:09;10.40;48.90
46608;DHT22;32330;51.936;7.184;2022-12-29T09:45:43;10.40;53.20
46608;DHT22;32330;51.936;7.184;2022-12-29T09:48:11;10.30;60.70
46608;DHT22;32330;51.936;7.184;2022-12-29T09:50:44;10.40;57.80
46608;DHT22;32330;51.936;7.184;2022-12-29T09:53:18;10.40;57.20
46608;DHT22;32330;51.936;7.184;2022-12-29T09:55:49;10.50;63.80
46608;DHT22;32330;51.936;7.184;2022-12-29T09:58:21;10.50;66.40
46608;DHT22;32330;51.936;7.184;2022-12-29T10:00:54;10.50;66.60
46608;DHT22;32330;51.936;7.184;2022-12-29T10:03:26;10.50;66.50
46608;DHT22;32330;51.936;7.184;2022-12-29T10:06:06;10.60;61.90
46608;DHT22;32330;51.936;7.184;2022-12-29T10:08:39;10.60;62.30
46608;DHT22;32330;51.936;7.184;2022-12-29T10:11:18;10.70;59.40
46608;DHT22;32330;51.936;7.184;2022-12-29T10:14:00;10.70;66.00
46608;DHT22;32330;51.936;7.184;2022-12-29T10:16:36;10.70;62.60
46608;DHT22;32330;51.936;7.184;2022-12-29T10:19:22;10.70;61.70
46608;DHT22;32330;51.936;7.184;2022-12-29T10:22:03;10.70;67.90
46608;DHT22;32330;51.936;7.184;2022-12-29T10:24:35;10.80;54.70
46608;DHT22;32330;51.936;7.184;2022-12-29T10:27:09;10.90;52.50
46608;DHT22;32330;51.936;7.184;2022-12-29T10:29:41;10.90;50.10
46608;DHT22;32330;51.936;7.184;2022-12-29T10:32:22;10.90;51.70
46608;DHT22;32330;51.936;7.184;2022-12-29T10:34:53;11.00;55.70
46608;DHT22;32330;51.936;7.184;2022-12-29T10:37:29;11.00;58.90
46608;DHT22;32330;51.936;7.184;2022-12-29T10:39:59;11.00;60.90
46608;DHT22;32330;51.936;7.184;2022-12-29T10:42:33;11.00;57.50
46608;DHT22;32330;51.936;7.184;2022-12-29T10:45:02;11.00;61.20
46608;DHT22;32330;51.936;7.184;2022-12-29T10:47:35;11.10;58.10
46608;DHT22;32330;51.936;7.184;2022-12-29T10:50:05;11.00;57.90
46608;DHT22;32330;51.936;7.184;2022-12-29T10:52:35;11.00;59.80
46608;DHT22;32330;51.936;7.184;2022-12-29T10:55:08;10.90;69.20
46608;DHT22;32330;51.936;7.184;2022-12-29T10:57:41;10.90;55.90
46608;DHT22;32330;51.936;7.184;2022-12-29T11:00:12;11.00;52.30
46608;DHT22;32330;51.936;7.184;2022-12-29T11:05:38;11.00;58.20
46608;DHT22;32330;51.936;7.184;2022-12-29T11:08:12;11.00;59.60
46608;DHT22;32330;51.936;7.184;2022-12-29T11:10:42;11.10;54.40
46608;DHT22;32330;51.936;7.184;2022-12-29T11:13:14;11.10;49.00
46608;DHT22;32330;51.936;7.184;2022-12-29T11:15:43;11.10;42.00
46608;DHT22;32330;51.936;7.184;2022-12-29T11:18:21;11.00;50.20
46608;DHT22;32330;51.936;7.184;2022-12-29T11:20:50;11.00;59.20
46608;DHT22;32330;51.936;7.184;2022-12-29T11:23:25;10.90;61.80
46608;DHT22;32330;51.936;7.184;2022-12-29T11:26:23;10.90;76.50
46608;DHT22;32330;51.936;7.184;2022-12-29T11:29:11;10.80;82.90
46608;DHT22;32330;51.936;7.184;2022-12-29T11:31:44;10.70;81.40
46608;DHT22;32330;51.936;7.184;2022-12-29T11:34:17;10.70;80.20
46608;DHT22;32330;51.936;7.184;2022-12-29T11:36:44;10.80;85.00
46608;DHT22;32330;51.936;7.184;2022-12-29T11:39:34;10.80;74.90
46608;DHT22;32330;51.936;7.184;2022-12-29T11:42:03;10.70;77.50
46608;DHT22;32330;51.936;7.184;2022-12-29T11:44:37;10.70;83.80
46608;DHT22;32330;51.936;7.184;2022-12-29T11:47:11;10.70;90.80
46608;DHT22;32330;51.936;7.184;2022-12-29T11:49:39;10.60;92.20
46608;DHT22;32330;51.936;7.184;2022-12-29T11:52:06;10.70;85.20
46608;DHT22;32330;51.936;7.184;2022-12-29T11:54:37;10.70;79.60
46608;DHT22;32330;51.936;7.184;2022-12-29T11:57:10;10.70;70.80
46608;DHT22;32330;51.936;7.184;2022-12-29T11:59:42;10.70;72.60
46608;DHT22;32330;51.936;7.184;2022-12-29T12:02:25;10.70;81.80
46608;DHT22;32330;51.936;7.184;2022-12-29T12:04:59;10.70;84.20
46608;DHT22;32330;51.936;7.184;2022-12-29T12:07:36;10.70;86.80
46608;DHT22;32330;51.936;7.184;2022-12-29T12:10:13;10.70;90.80
46608;DHT22;32330;51.936;7.184;2022-12-29T12:12:48;10.70;82.40
46608;DHT22;32330;51.936;7.184;2022-12-29T12:15:19;10.80;86.70
46608;DHT22;32330;51.936;7.184;2022-12-29T12:17:55;10.80;89.40
46608;DHT22;32330;51.936;7.184;2022-12-29T12:20:32;10.80;82.70
46608;DHT22;32330;51.936;7.184;2022-12-29T12:23:12;10.80;85.20
46608;DHT22;32330;51.936;7.184;2022-12-29T12:25:47;10.80;86.80
46608;DHT22;32330;51.936;7.184;2022-12-29T12:28:23;10.80;88.50
46608;DHT22;32330;51.936;7.184;2022-12-29T12:30:55;10.80;85.50
46608;DHT22;32330;51.936;7.184;2022-12-29T12:33:28;10.80;85.20
46608;DHT22;32330;51.936;7.184;2022-12-29T12:36:11;10.80;79.70
46608;DHT22;32330;51.936;7.184;2022-12-29T12:38:45;10.80;80.80
46608;DHT22;32330;51.936;7.184;2022-12-29T12:41:20;10.80;86.00
46608;DHT22;32330;51.936;7.184;2022-12-29T12:43:54;10.80;82.10
46608;DHT22;32330;51.936;7.184;2022-12-29T12:46:38;10.90;81.90
46608;DHT22;32330;51.936;7.184;2022-12-29T12:49:21;11.00;81.30
46608;DHT22;32330;51.936;7.184;2022-12-29T12:51:56;11.00;72.50
46608;DHT22;32330;51.936;7.184;2022-12-29T12:54:42;11.20;73.90
46608;DHT22;32330;51.936;7.184;2022-12-29T12:57:22;11.20;66.30
46608;DHT22;32330;51.936;7.184;2022-12-29T12:59:56;11.30;65.00
46608;DHT22;32330;51.936;7.184;2022-12-29T13:02:37;11.30;63.90
46608;DHT22;32330;51.936;7.184;2022-12-29T13:08:22;11.30;47.80
46608;DHT22;32330;51.936;7.184;2022-12-29T13:10:55;11.40;40.90
46608;DHT22;32330;51.936;7.184;2022-12-29T13:13:51;11.50;43.10
46608;DHT22;32330;51.936;7.184;2022-12-29T13:16:26;11.40;42.30
46608;DHT22;32330;51.936;7.184;2022-12-29T13:19:00;11.30;39.50
46608;DHT22;32330;51.936;7.184;2022-12-29T13:21:35;11.20;42.50
46608;DHT22;32330;51.936;7.184;2022-12-29T13:24:12;11.00;41.20
46608;DHT22;32330;51.936;7.184;2022-12-29T13:26:44;11.00;50.90
46608;DHT22;32330;51.936;7.184;2022-12-29T13:29:42;10.90;55.10
46608;DHT22;32330;51.936;7.184;2022-12-29T13:32:21;10.90;60.40
46608;DHT22;32330;51.936;7.184;2022-12-29T13:35:00;10.90;58.50
46608;DHT22;32330;51.936;7.184;2022-12-29T13:37:31;10.90;60.20
46608;DHT22;32330;51.936;7.184;2022-12-29T13:40:03;10.90;65.00
46608;DHT22;32330;51.936;7.184;2022-12-29T13:42:37;10.90;68.00
46608;DHT22;32330;51.936;7.184;2022-12-29T13:45:09;10.80;64.30
46608;DHT22;32330;51.936;7.184;2022-12-29T13:47:40;10.80;68.50
46608;DHT22;32330;51.936;7.184;2022-12-29T13:50:13;10.70;68.00
46608;DHT22;32330;51.936;7.184;2022-12-29T13:52:45;10.80;74.70
46608;DHT22;32330;51.936;7.184;2022-12-29T13:55:23;10.80;74.50
46608;DHT22;32330;51.936;7.184;2022-12-29T13:57:55;10.80;66.30
46608;DHT22;32330;51.936;7.184;2022-12-29T14:00:31;10.70;72.30
46608;DHT22;32330;51.936;7.184;2022-12-29T14:03:23;10.80;72.60
46608;DHT22;32330;51.936;7.184;2022-12-29T14:06:10;10.80;72.10
46608;DHT22;32330;51.936;7.184;2022-12-29T14:08:39;10.80;71.20
46608;DHT22;32330;51.936;7.184;2022-12-29T14:11:09;10.80;68.10
46608;DHT22;32330;51.936;7.184;2022-12-29T14:13:39;10.80;71.20
46608;DHT22;32330;51.936;7.184;2022-12-29T14:16:12;10.70;70.00
46608;DHT22;32330;51.936;7.184;2022-12-29T14:18:48;10.70;70.10
46608;DHT22;32330;51.936;7.184;2022-12-29T14:21:19;10.70;72.50
46608;DHT22;32330;51.936;7.184;2022-12-29T14:23:50;10.70;73.40
46608;DHT22;32330;51.936;7.184;2022-12-29T14:26:34;10.70;65.90
46608;DHT22;32330;51.936;7.184;2022-12-29T14:32:00;10.70;68.80
46608;DHT22;32330;51.936;7.184;2022-12-29T14:34:29;10.70;63.40
46608;DHT22;32330;51.936;7.184;2022-12-29T14:36:58;10.70;65.30
46608;DHT22;32330;51.936;7.184;2022-12-29T14:39:34;10.70;65.10
46608;DHT22;32330;51.936;7.184;2022-12-29T14:42:04;10.70;64.70
46608;DHT22;32330;51.936;7.184;2022-12-29T14:44:32;10.60;60.60
46608;DHT22;32330;51.936;7.184;2022-12-29T14:47:04;10.60;59.90
46608;DHT22;32330;51.936;7.184;2022-12-29T14:49:40;10.60;61.60
46608;DHT22;32330;51.936;7.184;2022-12-29T14:52:14;10.60;56.10
46608;DHT22;32330;51.936;7.184;2022-12-29T14:54:45;10.60;56.20
46608;DHT22;32330;51.936;7.184;2022-12-29T14:57:25;10.60;61.80
46608;DHT22;32330;51.936;7.184;2022-12-29T14:59:55;10.60;68.30
46608;DHT22;32330;51.936;7.184;2022-12-29T15:02:34;10.50;81.20
46608;DHT22;32330;51.936;7.184;2022-12-29T15:05:05;10.40;91.10
46608;DHT22;32330;51.936;7.184;2022-12-29T15:07:33;10.30;97.20
46608;DHT22;32330;51.936;7.184;2022-12-29T15:10:05;10.20;99.90
46608;DHT22;32330;51.936;7.184;2022-12-29T15:12:37;10.10;99.90
46608;DHT22;32330;51.936;7.184;2022-12-29T15:15:19;10.10;99.90
46608;DHT22;32330;51.936;7.184;2022-12-29T15:17:48;10.10;99.90
46608;DHT22;32330;51.936;7.184;2022-12-29T15:20:22;9.90;99.90
46608;DHT22;32330;51.936;7.184;2022-12-29T15:22:52;9.90;99.90
46608;DHT22;32330;51.936;7.184;2022-12-29T15:25:19;9.90;99.90
46608;DHT22;32330;51.936;7.184;2022-12-29T15:27:49;9.80;99.90
46608;DHT22;32330;51.936;7.184;2022-12-29T15:30:17;9.80;99.90
46608;DHT22;32330;51.936;7.184;2022-12-29T15:32:46;9.80;99.90
46608;DHT22;32330;51.936;7.184;2022-12-29T15:35:30;9.70;99.90
46608;DHT22;32330;51.936;7.184;2022-12-29T15:37:58;9.80;99.90
46608;DHT22;32330;51.936;7.184;2022-12-29T15:40:27;9.70;99.90
46608;DHT22;32330;51.936;7.184;2022-12-29T15:43:15;9.70;99.90
46608;DHT22;32330;51.936;7.184;2022-12-29T15:45:44;9.70;99.90
46608;DHT22;32330;51.936;7.184;2022-12-29T15:48:15;9.70;99.90
46608;DHT22;32330;51.936;7.184;2022-12-29T15:50:45;9.60;99.90
46608;DHT22;32330;51.936;7.184;2022-12-29T15:53:19;9.60;99.90
46608;DHT22;32330;51.936;7.184;2022-12-29T15:55:50;9.50;99.90
46608;DHT22;32330;51.936;7.184;2022-12-29T15:58:22;9.60;99.90
46608;DHT22;32330;51.936;7.184;2022-12-29T16:00:50;9.50;99.90
46608;DHT22;32330;51.936;7.184;2022-12-29T16:03:19;9.40;99.90
46608;DHT22;32330;51.936;7.184;2022-12-29T16:05:52;9.40;99.90
46608;DHT22;32330;51.936;7.184;2022-12-29T16:08:31;9.40;99.90
46608;DHT22;32330;51.936;7.184;2022-12-29T16:11:00;9.30;99.90
46608;DHT22;32330;51.936;7.184;2022-12-29T16:13:30;9.30;99.90
46608;DHT22;32330;51.936;7.184;2022-12-29T16:16:01;9.30;99.90
46608;DHT22;32330;51.936;7.184;2022-12-29T16:18:32;9.30;99.90
46608;DHT22;32330;51.936;7.184;2022-12-29T16:21:01;9.30;99.90
46608;DHT22;32330;51.936;7.184;2022-12-29T16:23:29;9.20;99.90